sensor_id;sensor_type;location;lat;lon;timestamp;P1;durP1;ratioP1;P2;durP2;ratioP2
15764;SDS011;7983;50.744;7.086;2022-12-18T00:01:17;9.73;;;5.67;;
15764;SDS011;7983;50.744;7.086;2022-12-18T00:03:47;11.03;;;6.30;;
15764;SDS011;7983;50.744;7.086;2022-12-18T00:06:13;10.27;;;6.17;;
15764;SDS011;7983;50.744;7.086;2022-12-18T00:08:40;9.33;;;5.40;;
15764;SDS011;7983;50.744;7.086;2022-12-18T00:11:07;12.30;;;6.63;;
15764;SDS011;7983;50.744;7.086;2022-12-18T00:13:36;12.23;;;7.33;;
15764;SDS011;7983;50.744;7.086;2022-12-18T00:16:06;11.07;;;6.73;;
15764;SDS011;7983;50.744;7.086;2022-12-18T00:18:34;14.07;;;7.23;;
15764;SDS011;7983;50.744;7.086;2022-12-18T00:21:02;13.30;;;8.27;;
15764;SDS011;7983;50.744;7.086;2022-12-18T00:23:32;14.37;;;7.93;;
15764;SDS011;7983;50.744;7.086;2022-12-18T00:26:02;14.13;;;7.27;;
15764;SDS011;7983;50.744;7.086;2022-12-18T00:28:34;14.37;;;7.40;;
15764;SDS011;7983;50.744;7.086;2022-12-18T00:31:02;11.83;;;7.13;;
15764;SDS011;7983;50.744;7.086;2022-12-18T00:33:36;11.53;;;6.80;;
15764;SDS011;7983;50.744;7.086;2022-12-18T00:36:03;13.07;;;7.20;;
15764;SDS011;7983;50.744;7.086;2022-12-18T00:38:30;17.43;;;9.87;;
15764;SDS011;7983;50.744;7.086;2022-12-18T00:40:56;13.97;;;8.13;;
15764;SDS011;7983;50.744;7.086;2022-12-18T00:43:22;14.57;;;7.53;;
15764;SDS011;7983;50.744;7.086;2022-12-18T00:45:50;14.27;;;7.20;;
15764;SDS011;7983;50.744;7.086;2022-12-18T00:48:17;13.10;;;6.57;;
15764;SDS011;7983;50.744;7.086;2022-12-18T00:50:43;12.13;;;7.37;;
15764;SDS011;7983;50.744;7.086;2022-12-18T00:53:12;13.77;;;7.50;;
15764;SDS011;7983;50.744;7.086;2022-12-18T00:55:43;11.20;;;6.30;;
15764;SDS011;7983;50.744;7.086;2022-12-18T00:58:12;14.17;;;7.33;;
15764;SDS011;7983;50.744;7.086;2022-12-18T01:00:39;12.23;;;6.67;;
15764;SDS011;7983;50.744;7.086;2022-12-18T01:03:05;10.40;;;6.17;;
15764;SDS011;7983;50.744;7.086;2022-12-18T01:05:31;13.00;;;6.57;;
15764;SDS011;7983;50.744;7.086;2022-12-18T01:07:56;13.80;;;7.33;;
15764;SDS011;7983;50.744;7.086;2022-12-18T01:10:23;13.20;;;7.90;;
15764;SDS011;7983;50.744;7.086;2022-12-18T01:12:49;12.43;;;7.47;;
15764;SDS011;7983;50.744;7.086;2022-12-18T01:15:15;13.17;;;7.53;;
15764;SDS011;7983;50.744;7.086;2022-12-18T01:17:41;15.43;;;8.63;;
15764;SDS011;7983;50.744;7.086;2022-12-18T01:20:12;13.57;;;8.20;;
15764;SDS011;7983;50.744;7.086;2022-12-18T01:22:38;14.53;;;7.90;;
15764;SDS011;7983;50.744;7.086;2022-12-18T01:25:04;12.30;;;6.87;;
15764;SDS011;7983;50.744;7.086;2022-12-18T01:27:30;12.73;;;6.57;;
15764;SDS011;7983;50.744;7.086;2022-12-18T01:29:57;13.17;;;7.47;;
15764;SDS011;7983;50.744;7.086;2022-12-18T01:32:23;10.87;;;6.43;;
15764;SDS011;7983;50.744;7.086;2022-12-18T01:34:48;12.37;;;7.57;;
15764;SDS011;7983;50.744;7.086;2022-12-18T01:37:14;11.20;;;7.00;;
15764;SDS011;7983;50.744;7.086;2022-12-18T01:39:42;14.17;;;7.20;;
15764;SDS011;7983;50.744;7.086;2022-12-18T01:42:14;12.77;;;7.43;;
15764;SDS011;7983;50.744;7.086;2022-12-18T01:47:33;12.10;;;6.97;;
15764;SDS011;7983;50.744;7.086;2022-12-18T01:50:21;13.17;;;7.37;;
15764;SDS011;7983;50.744;7.086;2022-12-18T01:53:14;16.47;;;9.50;;
15764;SDS011;7983;50.744;7.086;2022-12-18T01:55:42;15.17;;;8.60;;
15764;SDS011;7983;50.744;7.086;2022-12-18T01:58:11;14.37;;;8.83;;
15764;SDS011;7983;50.744;7.086;2022-12-18T02:00:37;15.43;;;9.40;;
15764;SDS011;7983;50.744;7.086;2022-12-18T02:03:03;16.00;;;8.47;;
15764;SDS011;7983;50.744;7.086;2022-12-18T02:10:43;13.73;;;7.97;;
15764;SDS011;7983;50.744;7.086;2022-12-18T02:13:23;16.03;;;8.30;;
15764;SDS011;7983;50.744;7.086;2022-12-18T02:16:17;15.83;;;8.13;;
15764;SDS011;7983;50.744;7.086;2022-12-18T02:18:51;14.70;;;8.53;;
15764;SDS011;7983;50.744;7.086;2022-12-18T02:26:58;16.53;;;8.50;;
15764;SDS011;7983;50.744;7.086;2022-12-18T02:29:30;13.30;;;7.40;;
15764;SDS011;7983;50.744;7.086;2022-12-18T02:32:02;13.03;;;7.23;;
15764;SDS011;7983;50.744;7.086;2022-12-18T02:34:38;10.93;;;7.10;;
15764;SDS011;7983;50.744;7.086;2022-12-18T02:37:11;11.93;;;6.57;;
15764;SDS011;7983;50.744;7.086;2022-12-18T02:39:40;16.10;;;8.83;;
15764;SDS011;7983;50.744;7.086;2022-12-18T02:42:08;15.67;;;8.03;;
15764;SDS011;7983;50.744;7.086;2022-12-18T02:44:39;19.17;;;9.70;;
15764;SDS011;7983;50.744;7.086;2022-12-18T02:47:09;15.33;;;8.53;;
15764;SDS011;7983;50.744;7.086;2022-12-18T03:00:20;10.93;;;6.13;;
15764;SDS011;7983;50.744;7.086;2022-12-18T03:02:56;11.73;;;6.97;;
15764;SDS011;7983;50.744;7.086;2022-12-18T03:08:02;10.73;;;6.50;;
15764;SDS011;7983;50.744;7.086;2022-12-18T03:10:32;12.13;;;6.60;;
15764;SDS011;7983;50.744;7.086;2022-12-18T03:13:05;11.93;;;6.40;;
15764;SDS011;7983;50.744;7.086;2022-12-18T03:15:37;11.70;;;6.30;;
15764;SDS011;7983;50.744;7.086;2022-12-18T03:18:21;12.23;;;7.00;;
15764;SDS011;7983;50.744;7.086;2022-12-18T03:21:01;16.73;;;8.83;;
15764;SDS011;7983;50.744;7.086;2022-12-18T03:23:36;12.73;;;7.30;;
15764;SDS011;7983;50.744;7.086;2022-12-18T03:26:09;14.87;;;7.90;;
15764;SDS011;7983;50.744;7.086;2022-12-18T03:28:38;11.70;;;6.70;;
15764;SDS011;7983;50.744;7.086;2022-12-18T03:31:11;13.83;;;7.57;;
15764;SDS011;7983;50.744;7.086;2022-12-18T03:33:52;12.27;;;7.27;;
15764;SDS011;7983;50.744;7.086;2022-12-18T03:36:19;12.73;;;7.10;;
15764;SDS011;7983;50.744;7.086;2022-12-18T03:38:45;12.90;;;7.67;;
15764;SDS011;7983;50.744;7.086;2022-12-18T03:41:15;13.97;;;7.80;;
15764;SDS011;7983;50.744;7.086;2022-12-18T03:43:58;13.40;;;7.27;;
15764;SDS011;7983;50.744;7.086;2022-12-18T03:49:56;13.40;;;7.40;;
15764;SDS011;7983;50.744;7.086;2022-12-18T03:52:13;13.53;;;7.77;;
15764;SDS011;7983;50.744;7.086;2022-12-18T03:54:46;13.83;;;8.20;;
15764;SDS011;7983;50.744;7.086;2022-12-18T03:57:19;16.80;;;9.80;;
15764;SDS011;7983;50.744;7.086;2022-12-18T03:59:51;14.00;;;7.93;;
15764;SDS011;7983;50.744;7.086;2022-12-18T04:02:31;12.73;;;7.13;;
15764;SDS011;7983;50.744;7.086;2022-12-18T04:05:00;12.60;;;7.70;;
15764;SDS011;7983;50.744;7.086;2022-12-18T04:07:27;20.13;;;10.37;;
15764;SDS011;7983;50.744;7.086;2022-12-18T04:09:55;13.93;;;8.33;;
15764;SDS011;7983;50.744;7.086;2022-12-18T04:12:26;15.60;;;8.50;;
15764;SDS011;7983;50.744;7.086;2022-12-18T04:14:56;13.70;;;7.70;;
15764;SDS011;7983;50.744;7.086;2022-12-18T04:17:24;15.50;;;9.07;;
15764;SDS011;7983;50.744;7.086;2022-12-18T04:19:53;12.43;;;7.87;;
15764;SDS011;7983;50.744;7.086;2022-12-18T04:22:18;15.47;;;8.53;;
15764;SDS011;7983;50.744;7.086;2022-12-18T04:24:46;11.47;;;6.73;;
15764;SDS011;7983;50.744;7.086;2022-12-18T04:27:12;12.03;;;6.67;;
15764;SDS011;7983;50.744;7.086;2022-12-18T04:29:39;11.47;;;7.27;;
15764;SDS011;7983;50.744;7.086;2022-12-18T04:32:05;11.60;;;6.87;;
15764;SDS011;7983;50.744;7.086;2022-12-18T04:34:31;14.90;;;8.87;;
15764;SDS011;7983;50.744;7.086;2022-12-18T04:36:57;14.60;;;8.10;;
15764;SDS011;7983;50.744;7.086;2022-12-18T04:39:25;13.77;;;8.37;;
15764;SDS011;7983;50.744;7.086;2022-12-18T04:41:51;15.57;;;8.97;;
15764;SDS011;7983;50.744;7.086;2022-12-18T04:44:16;17.23;;;9.80;;
15764;SDS011;7983;50.744;7.086;2022-12-18T04:46:44;16.10;;;8.90;;
15764;SDS011;7983;50.744;7.086;2022-12-18T04:49:10;14.97;;;8.43;;
15764;SDS011;7983;50.744;7.086;2022-12-18T04:51:38;12.37;;;8.13;;
15764;SDS011;7983;50.744;7.086;2022-12-18T04:54:03;13.43;;;8.03;;
15764;SDS011;7983;50.744;7.086;2022-12-18T04:56:31;13.50;;;7.43;;
15764;SDS011;7983;50.744;7.086;2022-12-18T04:58:57;13.20;;;7.57;;
15764;SDS011;7983;50.744;7.086;2022-12-18T05:01:23;11.80;;;6.50;;
15764;SDS011;7983;50.744;7.086;2022-12-18T05:03:48;14.57;;;7.80;;
15764;SDS011;7983;50.744;7.086;2022-12-18T05:06:15;12.73;;;7.47;;
15764;SDS011;7983;50.744;7.086;2022-12-18T05:08:43;11.90;;;6.90;;
15764;SDS011;7983;50.744;7.086;2022-12-18T05:11:12;13.77;;;7.03;;
15764;SDS011;7983;50.744;7.086;2022-12-18T05:13:40;15.47;;;8.03;;
15764;SDS011;7983;50.744;7.086;2022-12-18T05:16:06;19.10;;;10.97;;
15764;SDS011;7983;50.744;7.086;2022-12-18T05:18:32;17.37;;;9.47;;
15764;SDS011;7983;50.744;7.086;2022-12-18T05:21:00;15.17;;;9.07;;
15764;SDS011;7983;50.744;7.086;2022-12-18T05:23:26;19.03;;;10.57;;
15764;SDS011;7983;50.744;7.086;2022-12-18T05:25:59;18.77;;;10.93;;
15764;SDS011;7983;50.744;7.086;2022-12-18T05:28:29;15.53;;;9.27;;
15764;SDS011;7983;50.744;7.086;2022-12-18T05:31:00;18.00;;;9.60;;
15764;SDS011;7983;50.744;7.086;2022-12-18T05:33:30;12.97;;;8.00;;
15764;SDS011;7983;50.744;7.086;2022-12-18T05:36:00;16.23;;;8.40;;
15764;SDS011;7983;50.744;7.086;2022-12-18T05:38:28;14.27;;;7.97;;
15764;SDS011;7983;50.744;7.086;2022-12-18T05:40:57;15.93;;;8.30;;
15764;SDS011;7983;50.744;7.086;2022-12-18T05:43:23;12.63;;;7.60;;
15764;SDS011;7983;50.744;7.086;2022-12-18T05:45:52;12.73;;;7.70;;
15764;SDS011;7983;50.744;7.086;2022-12-18T05:48:19;12.90;;;6.90;;
15764;SDS011;7983;50.744;7.086;2022-12-18T05:50:45;12.53;;;7.40;;
15764;SDS011;7983;50.744;7.086;2022-12-18T05:53:19;13.03;;;7.17;;
15764;SDS011;7983;50.744;7.086;2022-12-18T05:55:46;11.23;;;6.87;;
15764;SDS011;7983;50.744;7.086;2022-12-18T05:58:14;12.60;;;7.43;;
15764;SDS011;7983;50.744;7.086;2022-12-18T06:00:45;15.80;;;6.57;;
15764;SDS011;7983;50.744;7.086;2022-12-18T06:03:14;11.57;;;6.87;;
15764;SDS011;7983;50.744;7.086;2022-12-18T06:05:44;13.10;;;7.97;;
15764;SDS011;7983;50.744;7.086;2022-12-18T06:08:12;11.63;;;6.60;;
15764;SDS011;7983;50.744;7.086;2022-12-18T06:10:38;12.93;;;7.40;;
15764;SDS011;7983;50.744;7.086;2022-12-18T06:13:07;13.93;;;7.33;;
15764;SDS011;7983;50.744;7.086;2022-12-18T06:15:35;12.53;;;7.07;;
15764;SDS011;7983;50.744;7.086;2022-12-18T06:18:05;10.77;;;6.53;;
15764;SDS011;7983;50.744;7.086;2022-12-18T06:20:33;10.87;;;6.37;;
15764;SDS011;7983;50.744;7.086;2022-12-18T06:23:01;15.07;;;8.27;;
15764;SDS011;7983;50.744;7.086;2022-12-18T06:25:27;15.60;;;8.53;;
15764;SDS011;7983;50.744;7.086;2022-12-18T06:27:55;12.43;;;6.83;;
15764;SDS011;7983;50.744;7.086;2022-12-18T06:30:20;11.67;;;6.33;;
15764;SDS011;7983;50.744;7.086;2022-12-18T06:32:50;10.93;;;6.57;;
15764;SDS011;7983;50.744;7.086;2022-12-18T06:35:16;11.07;;;6.47;;
15764;SDS011;7983;50.744;7.086;2022-12-18T06:37:42;13.20;;;7.57;;
15764;SDS011;7983;50.744;7.086;2022-12-18T06:40:09;11.20;;;6.63;;
15764;SDS011;7983;50.744;7.086;2022-12-18T06:42:35;10.17;;;6.20;;
15764;SDS011;7983;50.744;7.086;2022-12-18T06:45:03;10.83;;;7.13;;
15764;SDS011;7983;50.744;7.086;2022-12-18T06:47:29;10.40;;;6.47;;
15764;SDS011;7983;50.744;7.086;2022-12-18T06:49:57;13.37;;;7.57;;
15764;SDS011;7983;50.744;7.086;2022-12-18T06:52:25;13.10;;;7.80;;
15764;SDS011;7983;50.744;7.086;2022-12-18T06:54:53;17.23;;;10.37;;
15764;SDS011;7983;50.744;7.086;2022-12-18T06:57:19;17.80;;;9.57;;
15764;SDS011;7983;50.744;7.086;2022-12-18T06:59:44;15.17;;;8.63;;
15764;SDS011;7983;50.744;7.086;2022-12-18T07:02:11;12.00;;;7.57;;
15764;SDS011;7983;50.744;7.086;2022-12-18T07:04:37;13.80;;;8.33;;
15764;SDS011;7983;50.744;7.086;2022-12-18T07:07:05;12.53;;;7.17;;
15764;SDS011;7983;50.744;7.086;2022-12-18T07:09:31;13.90;;;7.77;;
15764;SDS011;7983;50.744;7.086;2022-12-18T07:11:56;13.27;;;7.90;;
15764;SDS011;7983;50.744;7.086;2022-12-18T07:14:27;14.43;;;8.70;;
15764;SDS011;7983;50.744;7.086;2022-12-18T07:16:53;13.53;;;8.30;;
15764;SDS011;7983;50.744;7.086;2022-12-18T07:19:21;15.07;;;9.03;;
15764;SDS011;7983;50.744;7.086;2022-12-18T07:21:49;13.77;;;7.60;;
15764;SDS011;7983;50.744;7.086;2022-12-18T07:24:17;11.83;;;7.50;;
15764;SDS011;7983;50.744;7.086;2022-12-18T07:26:45;12.27;;;7.27;;
15764;SDS011;7983;50.744;7.086;2022-12-18T07:29:14;15.07;;;8.63;;
15764;SDS011;7983;50.744;7.086;2022-12-18T07:31:39;12.27;;;6.90;;
15764;SDS011;7983;50.744;7.086;2022-12-18T07:34:05;15.10;;;8.27;;
15764;SDS011;7983;50.744;7.086;2022-12-18T07:36:34;13.93;;;8.70;;
15764;SDS011;7983;50.744;7.086;2022-12-18T07:39:02;14.03;;;8.13;;
15764;SDS011;7983;50.744;7.086;2022-12-18T07:41:27;14.77;;;8.30;;
15764;SDS011;7983;50.744;7.086;2022-12-18T07:43:58;14.17;;;7.90;;
15764;SDS011;7983;50.744;7.086;2022-12-18T07:46:24;13.97;;;8.00;;
15764;SDS011;7983;50.744;7.086;2022-12-18T07:48:49;12.30;;;6.97;;
15764;SDS011;7983;50.744;7.086;2022-12-18T07:51:17;11.87;;;7.13;;
15764;SDS011;7983;50.744;7.086;2022-12-18T07:53:44;10.37;;;6.47;;
15764;SDS011;7983;50.744;7.086;2022-12-18T07:56:12;11.10;;;6.30;;
15764;SDS011;7983;50.744;7.086;2022-12-18T07:58:40;10.43;;;6.87;;
15764;SDS011;7983;50.744;7.086;2022-12-18T08:01:07;13.60;;;8.23;;
15764;SDS011;7983;50.744;7.086;2022-12-18T08:03:36;14.63;;;8.17;;
15764;SDS011;7983;50.744;7.086;2022-12-18T08:06:04;14.30;;;8.63;;
15764;SDS011;7983;50.744;7.086;2022-12-18T08:08:31;16.70;;;9.40;;
15764;SDS011;7983;50.744;7.086;2022-12-18T08:10:58;14.83;;;8.77;;
15764;SDS011;7983;50.744;7.086;2022-12-18T08:13:26;15.70;;;7.97;;
15764;SDS011;7983;50.744;7.086;2022-12-18T08:16:03;14.97;;;8.33;;
15764;SDS011;7983;50.744;7.086;2022-12-18T08:18:32;14.87;;;8.37;;
15764;SDS011;7983;50.744;7.086;2022-12-18T08:21:07;12.93;;;8.03;;
15764;SDS011;7983;50.744;7.086;2022-12-18T08:23:43;13.20;;;7.90;;
15764;SDS011;7983;50.744;7.086;2022-12-18T08:26:10;11.57;;;6.30;;
15764;SDS011;7983;50.744;7.086;2022-12-18T08:28:36;13.03;;;6.97;;
15764;SDS011;7983;50.744;7.086;2022-12-18T08:31:05;13.30;;;7.67;;
15764;SDS011;7983;50.744;7.086;2022-12-18T08:33:33;16.27;;;10.13;;
15764;SDS011;7983;50.744;7.086;2022-12-18T08:36:08;20.60;;;11.70;;
15764;SDS011;7983;50.744;7.086;2022-12-18T08:38:35;17.07;;;9.87;;
15764;SDS011;7983;50.744;7.086;2022-12-18T08:41:01;15.10;;;8.50;;
15764;SDS011;7983;50.744;7.086;2022-12-18T08:43:34;14.43;;;7.90;;
15764;SDS011;7983;50.744;7.086;2022-12-18T08:46:19;11.33;;;7.00;;
15764;SDS011;7983;50.744;7.086;2022-12-18T08:48:53;11.90;;;6.90;;
15764;SDS011;7983;50.744;7.086;2022-12-18T08:51:20;10.77;;;6.87;;
15764;SDS011;7983;50.744;7.086;2022-12-18T08:53:49;14.73;;;9.03;;
15764;SDS011;7983;50.744;7.086;2022-12-18T08:56:15;15.47;;;8.60;;
15764;SDS011;7983;50.744;7.086;2022-12-18T08:58:41;13.60;;;7.77;;
15764;SDS011;7983;50.744;7.086;2022-12-18T09:01:10;11.73;;;7.03;;
15764;SDS011;7983;50.744;7.086;2022-12-18T09:03:37;11.57;;;6.87;;
15764;SDS011;7983;50.744;7.086;2022-12-18T09:06:03;15.07;;;8.37;;
15764;SDS011;7983;50.744;7.086;2022-12-18T09:08:29;13.33;;;8.03;;
15764;SDS011;7983;50.744;7.086;2022-12-18T09:10:55;16.17;;;9.53;;
15764;SDS011;7983;50.744;7.086;2022-12-18T09:13:26;15.10;;;8.90;;
15764;SDS011;7983;50.744;7.086;2022-12-18T09:15:52;13.27;;;8.47;;
15764;SDS011;7983;50.744;7.086;2022-12-18T09:18:19;14.10;;;8.60;;
15764;SDS011;7983;50.744;7.086;2022-12-18T09:20:48;12.20;;;6.97;;
15764;SDS011;7983;50.744;7.086;2022-12-18T09:23:16;13.60;;;8.30;;
15764;SDS011;7983;50.744;7.086;2022-12-18T09:25:44;14.60;;;8.90;;
15764;SDS011;7983;50.744;7.086;2022-12-18T09:28:14;13.20;;;8.07;;
15764;SDS011;7983;50.744;7.086;2022-12-18T09:30:42;13.37;;;8.20;;
15764;SDS011;7983;50.744;7.086;2022-12-18T09:33:10;14.37;;;8.30;;
15764;SDS011;7983;50.744;7.086;2022-12-18T09:35:39;14.00;;;8.17;;
15764;SDS011;7983;50.744;7.086;2022-12-18T09:38:14;13.70;;;8.50;;
15764;SDS011;7983;50.744;7.086;2022-12-18T09:40:54;12.30;;;8.23;;
15764;SDS011;7983;50.744;7.086;2022-12-18T09:43:29;12.87;;;8.50;;
15764;SDS011;7983;50.744;7.086;2022-12-18T09:46:16;17.10;;;10.17;;
15764;SDS011;7983;50.744;7.086;2022-12-18T09:48:54;13.63;;;9.00;;
15764;SDS011;7983;50.744;7.086;2022-12-18T09:51:28;12.90;;;8.33;;
15764;SDS011;7983;50.744;7.086;2022-12-18T09:54:05;12.07;;;8.13;;
15764;SDS011;7983;50.744;7.086;2022-12-18T09:56:41;11.87;;;7.53;;
15764;SDS011;7983;50.744;7.086;2022-12-18T09:59:18;13.83;;;8.10;;
15764;SDS011;7983;50.744;7.086;2022-12-18T10:01:48;15.33;;;9.50;;
15764;SDS011;7983;50.744;7.086;2022-12-18T10:04:14;14.00;;;8.90;;
15764;SDS011;7983;50.744;7.086;2022-12-18T10:11:51;16.03;;;8.80;;
15764;SDS011;7983;50.744;7.086;2022-12-18T10:14:49;13.97;;;9.27;;
15764;SDS011;7983;50.744;7.086;2022-12-18T10:20:05;13.80;;;9.20;;
15764;SDS011;7983;50.744;7.086;2022-12-18T10:26:03;14.60;;;8.87;;
15764;SDS011;7983;50.744;7.086;2022-12-18T10:28:35;11.90;;;7.77;;
15764;SDS011;7983;50.744;7.086;2022-12-18T10:31:07;12.93;;;8.20;;
15764;SDS011;7983;50.744;7.086;2022-12-18T10:33:43;12.33;;;8.03;;
15764;SDS011;7983;50.744;7.086;2022-12-18T10:36:09;14.97;;;8.70;;
15764;SDS011;7983;50.744;7.086;2022-12-18T10:38:37;13.37;;;8.97;;
15764;SDS011;7983;50.744;7.086;2022-12-18T10:41:14;15.20;;;9.13;;
15764;SDS011;7983;50.744;7.086;2022-12-18T10:46:44;14.23;;;9.03;;
15764;SDS011;7983;50.744;7.086;2022-12-18T10:49:25;14.33;;;9.60;;
15764;SDS011;7983;50.744;7.086;2022-12-18T10:54:52;15.07;;;9.83;;
15764;SDS011;7983;50.744;7.086;2022-12-18T10:59:58;14.13;;;9.00;;
15764;SDS011;7983;50.744;7.086;2022-12-18T11:02:34;15.43;;;9.70;;
15764;SDS011;7983;50.744;7.086;2022-12-18T11:05:01;14.20;;;9.67;;
15764;SDS011;7983;50.744;7.086;2022-12-18T11:07:49;13.27;;;8.73;;
15764;SDS011;7983;50.744;7.086;2022-12-18T11:10:19;13.00;;;9.00;;
15764;SDS011;7983;50.744;7.086;2022-12-18T11:12:48;15.20;;;9.90;;
15764;SDS011;7983;50.744;7.086;2022-12-18T11:15:18;15.97;;;9.87;;
15764;SDS011;7983;50.744;7.086;2022-12-18T11:17:49;12.90;;;8.63;;
15764;SDS011;7983;50.744;7.086;2022-12-18T11:20:20;12.10;;;8.40;;
15764;SDS011;7983;50.744;7.086;2022-12-18T11:22:59;12.97;;;8.07;;
15764;SDS011;7983;50.744;7.086;2022-12-18T11:25:35;10.43;;;7.13;;
15764;SDS011;7983;50.744;7.086;2022-12-18T11:31:08;17.43;;;10.27;;
15764;SDS011;7983;50.744;7.086;2022-12-18T11:33:42;14.20;;;9.07;;
15764;SDS011;7983;50.744;7.086;2022-12-18T11:36:14;15.30;;;9.33;;
15764;SDS011;7983;50.744;7.086;2022-12-18T11:38:42;14.63;;;9.47;;
15764;SDS011;7983;50.744;7.086;2022-12-18T11:44:15;14.23;;;9.33;;
15764;SDS011;7983;50.744;7.086;2022-12-18T11:46:55;15.30;;;9.73;;
15764;SDS011;7983;50.744;7.086;2022-12-18T11:49:33;16.33;;;9.60;;
15764;SDS011;7983;50.744;7.086;2022-12-18T11:54:40;17.43;;;10.00;;
15764;SDS011;7983;50.744;7.086;2022-12-18T11:57:15;15.63;;;10.20;;
15764;SDS011;7983;50.744;7.086;2022-12-18T12:00:10;15.93;;;10.03;;
15764;SDS011;7983;50.744;7.086;2022-12-18T12:22:13;15.87;;;10.37;;
15764;SDS011;7983;50.744;7.086;2022-12-18T12:27:33;14.77;;;10.00;;
15764;SDS011;7983;50.744;7.086;2022-12-18T12:35:51;15.33;;;10.17;;
15764;SDS011;7983;50.744;7.086;2022-12-18T12:38:42;14.37;;;9.47;;
15764;SDS011;7983;50.744;7.086;2022-12-18T12:41:16;15.30;;;9.37;;
15764;SDS011;7983;50.744;7.086;2022-12-18T12:44:09;18.90;;;11.13;;
15764;SDS011;7983;50.744;7.086;2022-12-18T12:46:43;16.00;;;10.43;;
15764;SDS011;7983;50.744;7.086;2022-12-18T12:49:12;15.73;;;10.53;;
15764;SDS011;7983;50.744;7.086;2022-12-18T12:51:43;19.67;;;12.17;;
15764;SDS011;7983;50.744;7.086;2022-12-18T12:54:19;16.57;;;10.80;;
15764;SDS011;7983;50.744;7.086;2022-12-18T12:56:50;16.27;;;10.13;;
15764;SDS011;7983;50.744;7.086;2022-12-18T13:00:04;17.17;;;10.53;;
15764;SDS011;7983;50.744;7.086;2022-12-18T13:05:51;13.97;;;9.43;;
15764;SDS011;7983;50.744;7.086;2022-12-18T13:10:54;14.33;;;9.60;;
15764;SDS011;7983;50.744;7.086;2022-12-18T13:13:52;14.60;;;9.27;;
15764;SDS011;7983;50.744;7.086;2022-12-18T13:16:21;17.07;;;10.87;;
15764;SDS011;7983;50.744;7.086;2022-12-18T13:18:49;15.30;;;9.60;;
15764;SDS011;7983;50.744;7.086;2022-12-18T13:21:27;13.77;;;8.93;;
15764;SDS011;7983;50.744;7.086;2022-12-18T13:23:55;12.60;;;8.20;;
15764;SDS011;7983;50.744;7.086;2022-12-18T13:28:52;14.10;;;10.00;;
15764;SDS011;7983;50.744;7.086;2022-12-18T13:47:01;14.87;;;10.20;;
15764;SDS011;7983;50.744;7.086;2022-12-18T13:49:53;18.70;;;11.77;;
15764;SDS011;7983;50.744;7.086;2022-12-18T13:52:23;17.90;;;11.43;;
15764;SDS011;7983;50.744;7.086;2022-12-18T13:54:54;16.93;;;10.53;;
15764;SDS011;7983;50.744;7.086;2022-12-18T13:57:36;18.73;;;11.40;;
15764;SDS011;7983;50.744;7.086;2022-12-18T14:03:33;17.30;;;10.63;;
15764;SDS011;7983;50.744;7.086;2022-12-18T14:05:54;17.30;;;10.80;;
15764;SDS011;7983;50.744;7.086;2022-12-18T14:08:32;17.50;;;11.30;;
15764;SDS011;7983;50.744;7.086;2022-12-18T14:11:21;18.53;;;11.47;;
15764;SDS011;7983;50.744;7.086;2022-12-18T14:14:31;17.37;;;10.60;;
15764;SDS011;7983;50.744;7.086;2022-12-18T14:17:08;18.43;;;11.90;;
15764;SDS011;7983;50.744;7.086;2022-12-18T14:19:56;17.60;;;10.50;;
15764;SDS011;7983;50.744;7.086;2022-12-18T14:35:18;17.43;;;10.87;;
15764;SDS011;7983;50.744;7.086;2022-12-18T14:44:10;20.50;;;11.80;;
15764;SDS011;7983;50.744;7.086;2022-12-18T14:46:46;18.63;;;11.70;;
15764;SDS011;7983;50.744;7.086;2022-12-18T14:49:32;18.47;;;11.80;;
15764;SDS011;7983;50.744;7.086;2022-12-18T14:51:59;18.27;;;11.40;;
15764;SDS011;7983;50.744;7.086;2022-12-18T14:54:28;18.10;;;11.23;;
15764;SDS011;7983;50.744;7.086;2022-12-18T15:00:15;20.67;;;11.50;;
15764;SDS011;7983;50.744;7.086;2022-12-18T15:16:06;18.60;;;11.20;;
15764;SDS011;7983;50.744;7.086;2022-12-18T15:21:35;18.70;;;12.00;;
15764;SDS011;7983;50.744;7.086;2022-12-18T15:24:14;21.03;;;12.63;;
15764;SDS011;7983;50.744;7.086;2022-12-18T15:26:47;17.37;;;11.20;;
15764;SDS011;7983;50.744;7.086;2022-12-18T15:29:20;20.83;;;11.37;;
15764;SDS011;7983;50.744;7.086;2022-12-18T15:32:03;19.67;;;12.23;;
15764;SDS011;7983;50.744;7.086;2022-12-18T15:34:30;20.23;;;12.67;;
15764;SDS011;7983;50.744;7.086;2022-12-18T15:37:07;19.30;;;11.70;;
15764;SDS011;7983;50.744;7.086;2022-12-18T15:39:35;19.03;;;12.10;;
15764;SDS011;7983;50.744;7.086;2022-12-18T15:42:18;21.20;;;12.63;;
15764;SDS011;7983;50.744;7.086;2022-12-18T15:45:02;20.10;;;12.17;;
15764;SDS011;7983;50.744;7.086;2022-12-18T15:47:31;20.87;;;12.37;;
15764;SDS011;7983;50.744;7.086;2022-12-18T15:49:58;20.93;;;12.27;;
15764;SDS011;7983;50.744;7.086;2022-12-18T15:52:30;16.93;;;11.17;;
15764;SDS011;7983;50.744;7.086;2022-12-18T15:55:26;18.33;;;11.27;;
15764;SDS011;7983;50.744;7.086;2022-12-18T15:58:10;17.47;;;11.47;;
15764;SDS011;7983;50.744;7.086;2022-12-18T16:00:38;18.50;;;10.97;;
15764;SDS011;7983;50.744;7.086;2022-12-18T16:03:09;21.97;;;12.97;;
15764;SDS011;7983;50.744;7.086;2022-12-18T16:09:17;22.77;;;13.00;;
15764;SDS011;7983;50.744;7.086;2022-12-18T16:11:43;25.30;;;13.57;;
15764;SDS011;7983;50.744;7.086;2022-12-18T16:17:42;20.47;;;12.00;;
15764;SDS011;7983;50.744;7.086;2022-12-18T16:20:19;25.00;;;14.17;;
15764;SDS011;7983;50.744;7.086;2022-12-18T16:23:04;18.67;;;11.77;;
15764;SDS011;7983;50.744;7.086;2022-12-18T16:25:38;22.47;;;13.93;;
15764;SDS011;7983;50.744;7.086;2022-12-18T16:28:06;21.90;;;12.77;;
15764;SDS011;7983;50.744;7.086;2022-12-18T16:30:34;21.07;;;12.83;;
15764;SDS011;7983;50.744;7.086;2022-12-18T16:33:00;22.00;;;13.33;;
15764;SDS011;7983;50.744;7.086;2022-12-18T16:35:28;22.40;;;13.37;;
15764;SDS011;7983;50.744;7.086;2022-12-18T16:37:57;21.37;;;12.80;;
15764;SDS011;7983;50.744;7.086;2022-12-18T16:40:25;20.23;;;12.67;;
15764;SDS011;7983;50.744;7.086;2022-12-18T16:42:53;20.97;;;12.53;;
15764;SDS011;7983;50.744;7.086;2022-12-18T16:45:21;22.83;;;13.63;;
15764;SDS011;7983;50.744;7.086;2022-12-18T16:47:49;23.80;;;14.43;;
15764;SDS011;7983;50.744;7.086;2022-12-18T16:50:17;26.77;;;14.93;;
15764;SDS011;7983;50.744;7.086;2022-12-18T16:52:48;25.17;;;15.77;;
15764;SDS011;7983;50.744;7.086;2022-12-18T17:09:09;23.17;;;13.30;;
15764;SDS011;7983;50.744;7.086;2022-12-18T17:19:05;23.40;;;13.70;;
15764;SDS011;7983;50.744;7.086;2022-12-18T17:41:53;23.63;;;14.77;;
15764;SDS011;7983;50.744;7.086;2022-12-18T17:44:22;24.67;;;14.50;;
15764;SDS011;7983;50.744;7.086;2022-12-18T17:46:55;22.73;;;14.07;;
15764;SDS011;7983;50.744;7.086;2022-12-18T17:49:38;23.70;;;14.33;;
15764;SDS011;7983;50.744;7.086;2022-12-18T17:52:24;24.70;;;14.33;;
15764;SDS011;7983;50.744;7.086;2022-12-18T17:58:32;25.67;;;14.70;;
15764;SDS011;7983;50.744;7.086;2022-12-18T18:01:07;26.50;;;15.43;;
15764;SDS011;7983;50.744;7.086;2022-12-18T18:03:39;22.90;;;14.00;;
15764;SDS011;7983;50.744;7.086;2022-12-18T18:13:39;26.93;;;15.37;;
15764;SDS011;7983;50.744;7.086;2022-12-18T18:17:07;23.90;;;14.00;;
15764;SDS011;7983;50.744;7.086;2022-12-18T18:19:47;28.50;;;15.67;;
15764;SDS011;7983;50.744;7.086;2022-12-18T18:22:41;25.47;;;14.77;;
15764;SDS011;7983;50.744;7.086;2022-12-18T18:25:09;25.63;;;15.50;;
15764;SDS011;7983;50.744;7.086;2022-12-18T18:27:38;28.60;;;16.57;;
15764;SDS011;7983;50.744;7.086;2022-12-18T18:30:42;22.63;;;13.60;;
15764;SDS011;7983;50.744;7.086;2022-12-18T18:33:10;25.70;;;14.40;;
15764;SDS011;7983;50.744;7.086;2022-12-18T18:35:40;23.97;;;14.73;;
15764;SDS011;7983;50.744;7.086;2022-12-18T18:38:19;23.47;;;13.97;;
15764;SDS011;7983;50.744;7.086;2022-12-18T18:46:58;27.20;;;15.40;;